Time;durP1;ratioP1;P1;durP2;ratioP2;P2;SDS_P1;SDS_P2;PMS_P1;PMS_P2;Temp;Humidity;BMP_temperature;BMP_pressure;BME280_temperature;BME280_humidity;BME280_pressure;Samples;Min_cycle;Max_cycle;Signal;HPM_P1;HPM_P2
2023/11/07 00:00:34;;;;;;;;;;;;;;;21.36;58.40;101167.19;7392823;19;1854;-40
2023/11/07 00:03:03;;;;;;;;;;;;;;;21.42;58.17;101163.91;7396765;19;1546;-40
2023/11/07 00:05:31;;;;;;;;;;;;;;;21.36;58.46;101161.81;7396072;19;1423;-40
2023/11/07 00:08:02;;;;;;;;;;;;;;;21.35;58.51;101160.13;7394933;19;1816;-40
2023/11/07 00:10:32;;;;;;;;;;;;;;;21.34;58.52;101158.41;7394597;19;1583;-40
2023/11/07 00:13:00;;;;;;;;;;;;;;;21.34;58.18;101166.47;7393982;19;1773;-40
2023/11/07 00:15:28;;;;;;;;;;;;;;;21.34;58.22;101166.47;7395081;19;1541;-40
2023/11/07 00:17:56;;;;;;;;;;;;;;;21.33;58.49;101162.09;7394863;19;1631;-40
2023/11/07 00:20:25;;;;;;;;;;;;;;;21.34;58.46;101171.84;7394273;19;1845;-40
2023/11/07 00:22:53;;;;;;;;;;;;;;;21.34;58.07;101177.25;7394909;19;1425;-40
2023/11/07 00:25:25;;;;;;;;;;;;;;;21.36;58.09;101177.94;7394938;19;1483;-38
2023/11/07 00:27:53;;;;;;;;;;;;;;;21.32;58.37;101168.47;7395242;19;1587;-41
2023/11/07 00:30:22;;;;;;;;;;;;;;;21.34;58.55;101179.09;7393973;19;1511;-41
2023/11/07 00:32:52;;;;;;;;;;;;;;;21.34;58.34;101187.16;7395539;19;1031;-41
2023/11/07 00:35:20;;;;;;;;;;;;;;;21.30;58.42;101167.75;7394365;19;1417;-41
2023/11/07 00:37:49;;;;;;;;;;;;;;;21.29;58.26;101190.28;7394644;19;1549;-40
2023/11/07 00:40:17;;;;;;;;;;;;;;;21.30;58.46;101183.06;7393308;19;1845;-39
2023/11/07 00:42:48;;;;;;;;;;;;;;;21.28;58.25;101180.50;7394530;19;1637;-41
2023/11/07 00:45:17;;;;;;;;;;;;;;;21.26;58.75;101175.25;7392748;19;1579;-41
2023/11/07 00:47:46;;;;;;;;;;;;;;;21.28;58.74;101176.97;7379903;19;1444;-41
2023/11/07 00:50:14;;;;;;;;;;;;;;;21.22;58.65;101183.75;7393816;19;1574;-41
2023/11/07 00:52:43;;;;;;;;;;;;;;;21.26;58.65;101185.16;7392811;19;1429;-41
2023/11/07 00:55:11;;;;;;;;;;;;;;;21.27;58.63;101184.19;7394068;19;1158;-41
2023/11/07 00:57:40;;;;;;;;;;;;;;;21.27;58.23;101186.88;7393858;19;1539;-41
2023/11/07 01:00:13;;;;;;;;;;;;;;;21.28;58.65;101185.03;7393450;19;1506;-41
2023/11/07 01:02:41;;;;;;;;;;;;;;;21.27;58.37;101192.25;7390010;19;1906;-41
2023/11/07 01:05:10;;;;;;;;;;;;;;;21.22;58.28;101186.44;7393139;19;1356;-41
2023/11/07 01:07:39;;;;;;;;;;;;;;;21.21;58.22;101184.75;7393339;19;1475;-41
2023/11/07 01:10:08;;;;;;;;;;;;;;;21.23;58.53;101194.38;7392050;19;1547;-41
2023/11/07 01:12:36;;;;;;;;;;;;;;;21.27;58.51;101189.56;7392371;19;1451;-41
2023/11/07 01:15:05;;;;;;;;;;;;;;;21.28;58.23;101195.78;7393245;19;1323;-41
2023/11/07 01:17:36;;;;;;;;;;;;;;;21.27;58.33;101189.56;7394221;19;1538;-41
2023/11/07 01:20:06;;;;;;;;;;;;;;;21.29;58.17;101198.34;7392966;19;1833;-41
2023/11/07 01:22:34;;;;;;;;;;;;;;;21.28;58.07;101185.88;7390183;19;1855;-41
2023/11/07 01:25:03;;;;;;;;;;;;;;;21.30;58.09;101191.97;7393312;19;1516;-41
2023/11/07 01:27:31;;;;;;;;;;;;;;;21.25;58.37;101200.47;7394179;19;1555;-41
2023/11/07 01:30:00;;;;;;;;;;;;;;;21.24;58.40;101188.00;7392326;19;1496;-41
2023/11/07 01:32:28;;;;;;;;;;;;;;;21.25;58.17;101196.94;7394274;19;1430;-41
2023/11/07 01:34:59;;;;;;;;;;;;;;;21.26;58.09;101198.63;7393100;19;1523;-41
2023/11/07 01:37:28;;;;;;;;;;;;;;;21.29;57.97;101205.53;7391609;19;1578;-41
2023/11/07 01:39:56;;;;;;;;;;;;;;;21.25;58.06;101200.47;7391390;19;1618;-41
2023/11/07 01:42:24;;;;;;;;;;;;;;;21.24;58.36;101206.81;7391048;19;1935;-41
2023/11/07 01:44:53;;;;;;;;;;;;;;;21.26;58.55;101201.31;7392595;19;1604;-41
2023/11/07 01:47:23;;;;;;;;;;;;;;;21.23;58.32;101217.75;7376763;19;1681;-41
2023/11/07 01:49:51;;;;;;;;;;;;;;;21.20;58.46;101212.63;7391767;19;1847;-41
2023/11/07 01:52:23;;;;;;;;;;;;;;;20.99;58.27;101189.38;7392356;19;1537;-41
2023/11/07 01:54:53;;;;;;;;;;;;;;;21.22;58.68;101210.66;7392262;19;1587;-41
2023/11/07 01:57:22;;;;;;;;;;;;;;;21.24;58.34;101208.66;7390813;19;1816;-41
2023/11/07 01:59:50;;;;;;;;;;;;;;;21.19;58.36;101208.25;7391839;19;1647;-41
2023/11/07 02:02:20;;;;;;;;;;;;;;;21.23;58.28;101209.66;7389735;19;1861;-44
2023/11/07 02:04:49;;;;;;;;;;;;;;;21.19;58.28;101210.94;7391767;19;1534;-41
2023/11/07 02:07:17;;;;;;;;;;;;;;;21.20;58.55;101213.47;7391644;19;1465;-41
2023/11/07 02:09:48;;;;;;;;;;;;;;;21.23;58.48;101225.81;7390731;19;1507;-41
2023/11/07 02:12:16;;;;;;;;;;;;;;;21.19;58.67;101210.94;7391694;19;1777;-41
2023/11/07 02:14:44;;;;;;;;;;;;;;;21.18;58.53;101228.06;7391685;19;1495;-41
2023/11/07 02:17:13;;;;;;;;;;;;;;;21.18;58.58;101228.88;7390031;19;1734;-41
2023/11/07 02:19:41;;;;;;;;;;;;;;;21.18;58.47;101220.81;7391289;19;1538;-41
2023/11/07 02:22:11;;;;;;;;;;;;;;;21.16;58.25;101232.72;7391109;19;1846;-41
2023/11/07 02:24:42;;;;;;;;;;;;;;;21.18;58.41;101230.75;7391417;19;1506;-41
2023/11/07 02:27:10;;;;;;;;;;;;;;;21.19;58.28;101237.84;7388477;19;1860;-41
2023/11/07 02:29:39;;;;;;;;;;;;;;;21.16;58.11;101230.03;7390173;19;1431;-41
2023/11/07 02:32:08;;;;;;;;;;;;;;;21.18;58.12;101241.50;7391032;19;1555;-41
2023/11/07 02:34:36;;;;;;;;;;;;;;;21.17;58.30;101212.88;7393729;19;1427;-41
2023/11/07 02:37:05;;;;;;;;;;;;;;;21.15;58.06;101241.75;7398672;19;1534;-41
2023/11/07 02:39:33;;;;;;;;;;;;;;;21.18;58.39;101247.72;7394996;19;2328;-41
2023/11/07 02:42:04;;;;;;;;;;;;;;;21.19;58.46;101270.09;7393966;19;1843;-41
2023/11/07 02:44:32;;;;;;;;;;;;;;;21.18;58.26;101252.25;7397353;19;1542;-41
2023/11/07 02:47:01;;;;;;;;;;;;;;;21.15;58.20;101255.22;7380921;19;1748;-41
2023/11/07 02:49:29;;;;;;;;;;;;;;;21.18;58.29;101254.94;7398105;19;1494;-41
2023/11/07 02:51:57;;;;;;;;;;;;;;;21.17;58.02;101255.91;7397386;19;1857;-41
2023/11/07 02:54:26;;;;;;;;;;;;;;;21.14;58.26;101261.59;7396579;19;1717;-41
2023/11/07 02:56:55;;;;;;;;;;;;;;;21.15;58.20;101263.28;7396408;19;1372;-41
2023/11/07 02:59:26;;;;;;;;;;;;;;;21.17;58.07;101255.91;7395372;19;1495;-41
2023/11/07 03:01:55;;;;;;;;;;;;;;;21.13;58.80;101244.59;7396713;19;1943;-41
2023/11/07 03:04:24;;;;;;;;;;;;;;;21.09;58.32;101247.69;7397679;19;1530;-44
2023/11/07 03:06:53;;;;;;;;;;;;;;;21.11;58.53;101241.22;7395161;19;1489;-41
2023/11/07 03:09:21;;;;;;;;;;;;;;;21.12;58.44;101250.97;7394703;19;1374;-41
2023/11/07 03:11:50;;;;;;;;;;;;;;;21.13;58.49;101254.50;7395494;19;1512;-41
2023/11/07 03:14:19;;;;;;;;;;;;;;;21.14;58.23;101256.22;7390263;19;1440;-41
2023/11/07 03:16:49;;;;;;;;;;;;;;;21.11;58.05;101262.72;7394700;19;1539;-41
2023/11/07 03:19:18;;;;;;;;;;;;;;;21.10;58.12;101260.16;7394666;19;1820;-41
2023/11/07 03:21:46;;;;;;;;;;;;;;;21.12;58.35;101259.03;7393648;19;1859;-41
2023/11/07 03:24:15;;;;;;;;;;;;;;;21.13;58.36;101271.50;7392634;19;1349;-41
2023/11/07 03:26:43;;;;;;;;;;;;;;;21.08;58.27;101275.59;7396424;19;1921;-41
2023/11/07 03:29:12;;;;;;;;;;;;;;;21.12;58.23;101279.69;7395875;19;1476;-41
2023/11/07 03:31:41;;;;;;;;;;;;;;;21.12;58.64;101285.94;7396040;19;1496;-41
2023/11/07 03:34:12;;;;;;;;;;;;;;;21.09;58.42;101288.03;7395231;19;1582;-41
2023/11/07 03:36:41;;;;;;;;;;;;;;;21.10;58.30;101285.22;7395346;19;1544;-41
2023/11/07 03:39:09;;;;;;;;;;;;;;;21.09;58.48;101266.50;7391143;19;1431;-41
2023/11/07 03:41:41;;;;;;;;;;;;;;;21.16;58.15;101275.75;7394744;19;1834;-41
2023/11/07 03:44:09;;;;;;;;;;;;;;;21.17;58.42;101272.06;7393134;19;1821;-41
2023/11/07 03:46:38;;;;;;;;;;;;;;;21.15;58.32;101265.97;7393612;19;1793;-41
2023/11/07 03:49:07;;;;;;;;;;;;;;;21.12;58.16;101269.78;7384703;19;1555;-41
2023/11/07 03:51:38;;;;;;;;;;;;;;;21.14;58.53;101285.78;7395392;19;1550;-41
2023/11/07 03:54:06;;;;;;;;;;;;;;;21.11;58.60;101264.53;7395181;19;1388;-41
2023/11/07 03:56:34;;;;;;;;;;;;;;;21.10;58.54;101287.06;7395564;19;1579;-41
2023/11/07 03:59:03;;;;;;;;;;;;;;;21.12;58.25;101260.88;7394962;19;1362;-41
2023/11/07 04:01:41;;;;;;;;;;;;;;;21.09;58.41;101263.81;7394240;19;1845;-41
2023/11/07 04:04:09;;;;;;;;;;;;;;;21.10;58.51;101293.28;7395745;19;1508;-41
2023/11/07 04:06:40;;;;;;;;;;;;;;;21.06;58.31;101281.94;7395227;19;1507;-41
2023/11/07 04:09:08;;;;;;;;;;;;;;;21.08;58.04;101283.66;7394557;19;1609;-41
2023/11/07 04:11:37;;;;;;;;;;;;;;;21.03;58.36;101284.91;7394520;19;1611;-41
2023/11/07 04:14:05;;;;;;;;;;;;;;;21.04;58.26;101286.59;7395525;19;1544;-41
2023/11/07 04:16:34;;;;;;;;;;;;;;;21.12;58.00;101285.94;7394577;19;1523;-41
2023/11/07 04:19:03;;;;;;;;;;;;;;;21.09;58.30;101279.97;7394742;19;1482;-41
2023/11/07 04:21:33;;;;;;;;;;;;;;;21.05;58.09;101292.84;7395797;19;1866;-41
2023/11/07 04:24:05;;;;;;;;;;;;;;;21.05;58.34;101290.16;7394166;19;1499;-41
2023/11/07 04:26:33;;;;;;;;;;;;;;;21.03;58.48;101287.59;7395744;19;1431;-41
2023/11/07 04:29:03;;;;;;;;;;;;;;;21.05;58.46;101291.00;7395848;19;1781;-41
2023/11/07 04:31:33;;;;;;;;;;;;;;;21.05;58.23;101291.00;7392867;19;1796;-41
2023/11/07 04:34:01;;;;;;;;;;;;;;;21.02;58.24;101302.03;7392680;19;1797;-41
2023/11/07 04:36:30;;;;;;;;;;;;;;;20.99;58.47;101296.94;7392096;19;1389;-41
2023/11/07 04:38:59;;;;;;;;;;;;;;;21.03;58.36;101297.53;7393628;19;1388;-41
2023/11/07 04:41:30;;;;;;;;;;;;;;;21.03;58.13;101292.97;7393230;19;1550;-41
2023/11/07 04:43:59;;;;;;;;;;;;;;;21.05;58.50;101306.31;7392900;19;1584;-41
2023/11/07 04:46:27;;;;;;;;;;;;;;;21.06;58.25;101300.75;7387916;19;1966;-41
2023/11/07 04:48:56;;;;;;;;;;;;;;;21.09;58.27;101296.09;7374451;19;1531;-41
2023/11/07 04:51:24;;;;;;;;;;;;;;;21.06;58.51;101302.59;7390662;19;1631;-40
2023/11/07 04:53:52;;;;;;;;;;;;;;;21.06;58.34;101303.44;7390303;19;1733;-41
2023/11/07 04:56:22;;;;;;;;;;;;;;;21.02;58.03;101293.97;7391830;19;1491;-41
2023/11/07 04:58:53;;;;;;;;;;;;;;;21.08;58.04;101295.25;7391208;19;1381;-41
2023/11/07 05:01:21;;;;;;;;;;;;;;;21.13;57.46;101297.53;7390125;19;2314;-40
2023/11/07 05:03:49;;;;;;;;;;;;;;;21.10;57.55;101298.66;7391541;19;1892;-41
2023/11/07 05:06:19;;;;;;;;;;;;;;;21.03;57.75;101311.81;7392165;19;1621;-41
2023/11/07 05:08:47;;;;;;;;;;;;;;;21.00;57.85;101314.75;7389817;19;1530;-40
2023/11/07 05:11:17;;;;;;;;;;;;;;;20.97;57.87;101306.09;7391607;19;1456;-41
2023/11/07 05:13:45;;;;;;;;;;;;;;;20.94;57.78;101317.97;7390499;19;1487;-40
2023/11/07 05:16:16;;;;;;;;;;;;;;;20.92;58.16;101324.50;7389543;19;1498;-44
2023/11/07 05:18:45;;;;;;;;;;;;;;;20.94;58.15;101323.38;7392889;19;1503;-42
2023/11/07 05:21:13;;;;;;;;;;;;;;;20.91;58.01;101323.66;7392284;19;1558;-41
2023/11/07 05:23:41;;;;;;;;;;;;;;;20.94;57.47;101320.66;7390370;19;1878;-41
2023/11/07 05:26:10;;;;;;;;;;;;;;;21.06;57.54;101334.88;7391722;19;1493;-41
2023/11/07 05:28:38;;;;;;;;;;;;;;;21.08;57.65;101349.03;7392528;19;1593;-41
2023/11/07 05:31:07;;;;;;;;;;;;;;;21.22;57.33;101355.88;7392271;19;1693;-41
2023/11/07 05:33:40;;;;;;;;;;;;;;;21.24;57.00;101344.00;7391990;19;1574;-41
2023/11/07 05:36:09;;;;;;;;;;;;;;;21.28;57.59;101349.97;7359237;19;13719;-41
2023/11/07 05:38:38;;;;;;;;;;;;;;;21.31;57.01;101357.78;7392020;19;1554;-41
2023/11/07 05:41:07;;;;;;;;;;;;;;;21.19;57.78;101345.41;7391041;19;1555;-43
2023/11/07 05:43:35;;;;;;;;;;;;;;;21.40;57.26;101353.41;7391880;19;1862;-41
2023/11/07 05:46:04;;;;;;;;;;;;;;;21.30;57.97;101350.69;7392176;19;1657;-41
2023/11/07 05:48:32;;;;;;;;;;;;;;;21.08;59.06;101365.16;7376654;19;1641;-41
2023/11/07 05:51:03;;;;;;;;;;;;;;;21.11;58.80;101359.53;7392621;19;1615;-41
2023/11/07 05:53:31;;;;;;;;;;;;;;;21.31;58.13;101364.97;7392145;19;1476;-41
2023/11/07 05:56:01;;;;;;;;;;;;;;;21.24;58.11;101361.97;7391745;19;1475;-41
2023/11/07 05:58:29;;;;;;;;;;;;;;;21.21;58.56;101370.34;7391297;19;1432;-41
2023/11/07 06:00:58;;;;;;;;;;;;;;;21.32;58.42;101366.69;7391637;19;1531;-41
2023/11/07 06:03:26;;;;;;;;;;;;;;;21.55;57.66;101380.81;7390706;19;1858;-41
2023/11/07 06:05:54;;;;;;;;;;;;;;;21.40;59.13;101394.59;7390982;19;1603;-42
2023/11/07 06:08:25;;;;;;;;;;;;;;;21.18;58.09;101386.72;7391445;19;1578;-41
2023/11/07 06:10:54;;;;;;;;;;;;;;;21.29;58.63;101375.00;7396892;19;1431;-40
2023/11/07 06:13:22;;;;;;;;;;;;;;;21.34;58.88;101381.69;7397289;19;1829;-40
2023/11/07 06:15:50;;;;;;;;;;;;;;;21.35;58.66;101383.41;7399860;19;1561;-40
2023/11/07 06:18:21;;;;;;;;;;;;;;;21.24;55.25;101402.34;7399112;19;1499;-40
2023/11/07 06:20:50;;;;;;;;;;;;;;;21.17;51.51;101402.03;7398298;19;1562;-40
2023/11/07 06:23:18;;;;;;;;;;;;;;;20.96;50.12;101399.34;7393713;19;1813;-40
2023/11/07 06:25:49;;;;;;;;;;;;;;;20.85;48.74;101407.53;7395784;19;1483;-40
2023/11/07 06:28:18;;;;;;;;;;;;;;;20.83;48.35;101415.72;7394591;19;1595;-40
2023/11/07 06:30:46;;;;;;;;;;;;;;;20.68;47.97;101398.19;7394302;19;1571;-40
2023/11/07 06:33:15;;;;;;;;;;;;;;;20.81;47.56;101406.06;7394559;19;1669;-40
2023/11/07 06:35:44;;;;;;;;;;;;;;;20.82;46.81;101422.06;7395830;19;1591;-40
2023/11/07 06:38:12;;;;;;;;;;;;;;;20.73;46.48;101411.25;7398774;19;1543;-40
2023/11/07 06:40:41;;;;;;;;;;;;;;;20.62;48.22;101414.84;7397704;19;1571;-42
2023/11/07 06:43:12;;;;;;;;;;;;;;;20.59;46.67;101409.72;7393857;19;1861;-40
2023/11/07 06:45:40;;;;;;;;;;;;;;;20.44;46.49;101425.28;7397667;19;1625;-41
2023/11/07 06:48:09;;;;;;;;;;;;;;;20.46;46.32;101407.22;7386184;19;1537;-40
2023/11/07 06:50:38;;;;;;;;;;;;;;;20.37;46.67;101413.34;7399405;19;1322;-40
2023/11/07 06:53:06;;;;;;;;;;;;;;;20.35;46.28;101405.44;7399019;19;1574;-41
2023/11/07 06:55:35;;;;;;;;;;;;;;;20.27;46.53;101411.44;7398597;19;1606;-40
2023/11/07 06:58:04;;;;;;;;;;;;;;;20.59;47.54;101407.91;7393097;19;1547;-40
2023/11/07 07:00:38;;;;;;;;;;;;;;;20.54;46.60;101410.09;7393294;19;1598;-40
2023/11/07 07:03:07;;;;;;;;;;;;;;;20.55;46.51;101406.44;7394229;19;1845;-41
2023/11/07 07:05:35;;;;;;;;;;;;;;;20.44;46.90;101414.53;7397957;19;1575;-40
2023/11/07 07:08:03;;;;;;;;;;;;;;;20.40;47.03;101430.06;7398144;19;1095;-40
2023/11/07 07:10:32;;;;;;;;;;;;;;;20.38;46.65;101423.13;7395380;19;1718;-41
2023/11/07 07:13:01;;;;;;;;;;;;;;;20.41;46.38;101406.72;7396561;19;1578;-40
2023/11/07 07:15:29;;;;;;;;;;;;;;;20.39;46.71;101401.50;7396986;19;1540;-41
2023/11/07 07:18:05;;;;;;;;;;;;;;;20.42;47.09;101409.28;7393060;19;2219;-41
2023/11/07 07:20:36;;;;;;;;;;;;;;;20.39;47.21;101401.50;7395369;19;1630;-40
2023/11/07 07:23:05;;;;;;;;;;;;;;;20.36;47.69;101407.13;7394247;19;1875;-41
2023/11/07 07:25:36;;;;;;;;;;;;;;;20.31;47.82;101390.53;7396557;19;1563;-41
2023/11/07 07:28:04;;;;;;;;;;;;;;;20.46;48.47;101399.16;7394768;19;1578;-39
2023/11/07 07:30:33;;;;;;;;;;;;;;;20.57;47.71;101400.91;7393355;19;1440;-42
2023/11/07 07:33:06;;;;;;;;;;;;;;;20.60;48.32;101401.53;7390943;19;1237;-39
2023/11/07 07:35:34;;;;;;;;;;;;;;;20.60;49.26;101393.47;7393810;19;1499;-39
2023/11/07 07:38:03;;;;;;;;;;;;;;;20.65;49.70;101402.00;7395529;19;1560;-39
2023/11/07 07:40:32;;;;;;;;;;;;;;;20.72;49.82;101405.00;7394303;19;1565;-39
2023/11/07 07:43:08;;;;;;;;;;;;;;;20.78;49.41;101411.72;7392818;19;1859;-39
2023/11/07 07:45:38;;;;;;;;;;;;;;;20.83;49.33;101404.09;7394704;19;1546;-40
2023/11/07 07:48:09;;;;;;;;;;;;;;;20.90;50.51;101409.81;7378293;19;1617;-39
2023/11/07 07:50:42;;;;;;;;;;;;;;;20.97;48.45;101414.53;7393207;19;2403;-38
2023/11/07 07:53:10;;;;;;;;;;;;;;;21.06;48.50;101411.00;7393075;19;1597;-39
2023/11/07 07:55:43;;;;;;;;;;;;;;;21.05;49.31;101403.09;7393846;19;1566;-39
2023/11/07 07:58:11;;;;;;;;;;;;;;;21.05;49.10;101403.09;7393735;19;1555;-39
2023/11/07 08:00:43;;;;;;;;;;;;;;;20.99;50.02;101407.16;7393487;19;1688;-39
2023/11/07 08:03:15;;;;;;;;;;;;;;;20.98;49.86;101389.31;7392987;19;1863;-39
2023/11/07 08:05:44;;;;;;;;;;;;;;;20.97;50.00;101401.06;7393717;19;1535;-39
2023/11/07 08:08:13;;;;;;;;;;;;;;;21.06;50.05;101405.63;7394908;19;1591;-39
2023/11/07 08:10:47;;;;;;;;;;;;;;;21.15;50.05;101409.38;7393122;19;1547;-39
2023/11/07 08:13:16;;;;;;;;;;;;;;;21.21;49.84;101410.69;7393473;19;1476;-39
2023/11/07 08:15:45;;;;;;;;;;;;;;;21.29;49.80;101399.22;7392127;19;1551;-38
2023/11/07 08:18:17;;;;;;;;;;;;;;;21.26;49.66;101400.34;7392169;19;1573;-38
2023/11/07 08:20:46;;;;;;;;;;;;;;;21.28;49.62;101393.00;7392741;19;1578;-39
2023/11/07 08:23:14;;;;;;;;;;;;;;;21.25;49.94;101396.81;7392454;19;1834;-38
2023/11/07 08:25:43;;;;;;;;;;;;;;;21.33;49.50;101369.25;7393324;19;1971;-38
2023/11/07 08:28:11;;;;;;;;;;;;;;;21.36;49.62;101384.25;7393984;19;1836;-38
2023/11/07 08:30:43;;;;;;;;;;;;;;;21.33;49.68;101379.13;7392691;19;1605;-38
2023/11/07 08:33:12;;;;;;;;;;;;;;;21.30;50.19;101385.66;7392215;19;1649;-38
2023/11/07 08:35:43;;;;;;;;;;;;;;;21.21;50.47;101386.47;7393627;19;1514;-38
2023/11/07 08:38:11;;;;;;;;;;;;;;;21.14;50.81;101385.31;7391579;19;1554;-38
2023/11/07 08:40:40;;;;;;;;;;;;;;;21.18;50.47;101384.03;7392439;19;1492;-38
2023/11/07 08:43:09;;;;;;;;;;;;;;;21.00;50.54;101378.44;7392903;19;1842;-38
2023/11/07 08:45:37;;;;;;;;;;;;;;;20.94;50.70;101379.81;7393475;19;1455;-37
2023/11/07 08:48:06;;;;;;;;;;;;;;;20.97;51.30;101371.50;7386556;19;1480;-38
2023/11/07 08:50:36;;;;;;;;;;;;;;;21.03;50.98;101379.03;7389932;19;1507;-38
2023/11/07 08:53:06;;;;;;;;;;;;;;;21.17;50.72;101380.50;7394458;19;1530;-38
2023/11/07 08:55:35;;;;;;;;;;;;;;;21.19;50.73;101366.94;7394179;19;1503;-45
2023/11/07 08:58:04;;;;;;;;;;;;;;;21.26;50.94;101376.16;7395455;19;1503;-37
2023/11/07 09:00:33;;;;;;;;;;;;;;;21.21;50.52;101370.34;7392883;19;1693;-39
2023/11/07 09:03:02;;;;;;;;;;;;;;;21.16;50.70;101367.19;7392750;19;1855;-38
2023/11/07 09:05:31;;;;;;;;;;;;;;;21.31;50.64;101360.47;7392270;19;1544;-38
2023/11/07 09:07:59;;;;;;;;;;;;;;;21.35;50.34;101356.50;7393545;19;1114;-39
2023/11/07 09:10:31;;;;;;;;;;;;;;;21.36;50.14;101354.66;7392492;19;1574;-42
2023/11/07 09:12:59;;;;;;;;;;;;;;;21.39;50.51;101360.63;7391076;19;1860;-37
2023/11/07 09:15:28;;;;;;;;;;;;;;;21.57;49.77;101357.31;7392044;19;1577;-38
2023/11/07 09:17:57;;;;;;;;;;;;;;;21.70;49.88;101335.50;7391461;19;1656;-38
2023/11/07 09:20:26;;;;;;;;;;;;;;;21.58;50.01;101351.78;7393181;19;1562;-38
2023/11/07 09:22:54;;;;;;;;;;;;;;;21.68;49.77;101335.63;7391042;19;1664;-37
2023/11/07 09:25:22;;;;;;;;;;;;;;;21.57;49.45;101333.09;7390224;19;1860;-37
2023/11/07 09:27:53;;;;;;;;;;;;;;;21.49;49.67;101346.38;7392525;19;1590;-38
2023/11/07 09:30:22;;;;;;;;;;;;;;;21.28;50.28;101347.28;7391514;19;1677;-38
2023/11/07 09:32:50;;;;;;;;;;;;;;;21.20;50.05;101347.09;7392014;19;1601;-38
2023/11/07 09:35:18;;;;;;;;;;;;;;;21.16;50.63;101353.75;7392735;19;1379;-37
2023/11/07 09:37:49;;;;;;;;;;;;;;;21.33;49.74;101328.03;7390824;19;1558;-38
2023/11/07 09:40:20;;;;;;;;;;;;;;;21.41;49.80;101318.28;7391249;19;1489;-37
2023/11/07 09:42:50;;;;;;;;;;;;;;;21.40;50.15;101305.81;7389820;19;1526;-38
2023/11/07 09:45:21;;;;;;;;;;;;;;;21.45;50.37;101319.75;7389749;19;1859;-38
2023/11/07 09:47:51;;;;;;;;;;;;;;;21.56;49.76;101304.47;7391313;19;1471;-38
2023/11/07 09:50:20;;;;;;;;;;;;;;;21.64;50.07;101302.75;7377066;19;1503;-38
2023/11/07 09:52:48;;;;;;;;;;;;;;;21.77;49.76;101307.06;7390348;19;1475;-38
2023/11/07 09:55:17;;;;;;;;;;;;;;;21.74;49.36;101310.00;7390610;19;1546;-37
2023/11/07 09:57:49;;;;;;;;;;;;;;;21.77;49.73;101280.97;7390452;19;1606;-38
2023/11/07 10:00:22;;;;;;;;;;;;;;;21.68;49.48;101286.34;7390729;19;1492;-38
2023/11/07 10:02:52;;;;;;;;;;;;;;;21.67;49.19;101290.88;7390142;19;1567;-37
2023/11/07 10:05:23;;;;;;;;;;;;;;;21.75;49.34;101282.97;7388965;19;1865;-37
2023/11/07 10:07:52;;;;;;;;;;;;;;;21.68;49.39;101276.44;7390905;19;1454;-38
2023/11/07 10:10:20;;;;;;;;;;;;;;;21.65;49.68;101265.97;7390238;19;1547;-38
2023/11/07 10:12:49;;;;;;;;;;;;;;;21.60;49.91;101270.91;7389141;19;1491;-38
2023/11/07 10:15:18;;;;;;;;;;;;;;;21.63;49.48;101257.19;7389530;19;1512;-37
2023/11/07 10:18:04;;;;;;;;;;;;;;;21.78;49.41;101247.66;7388822;19;1809;-38
2023/11/07 10:20:32;;;;;;;;;;;;;;;21.73;49.51;101235.66;7389937;19;1520;-37
2023/11/07 10:23:01;;;;;;;;;;;;;;;21.76;49.24;101235.34;7390011;19;1547;-38
2023/11/07 10:25:30;;;;;;;;;;;;;;;21.74;49.33;101237.31;7387722;19;1852;-38
2023/11/07 10:28:02;;;;;;;;;;;;;;;21.82;49.34;101229.38;7387816;19;1673;-38
2023/11/07 10:30:39;;;;;;;;;;;;;;;21.83;49.28;101231.09;7389645;19;1479;-38
2023/11/07 10:33:11;;;;;;;;;;;;;;;21.78;49.30;101239.59;7389732;19;1555;-38
2023/11/07 10:35:55;;;;;;;;;;;;;;;21.74;49.23;101227.41;7388157;19;1518;-38
2023/11/07 10:38:24;;;;;;;;;;;;;;;21.74;49.30;101227.41;7386690;19;1455;-38
2023/11/07 10:40:52;;;;;;;;;;;;;;;21.68;49.04;101230.66;7389790;19;1459;-37
2023/11/07 10:43:36;;;;;;;;;;;;;;;21.74;48.71;101226.56;7381468;19;1959;-38
2023/11/07 10:46:05;;;;;;;;;;;;;;;21.79;48.88;101214.38;7385764;19;1501;-38
2023/11/07 10:48:38;;;;;;;;;;;;;;;21.74;48.80;101248.94;7386163;19;1503;-37
2023/11/07 10:51:08;;;;;;;;;;;;;;;21.80;49.24;101223.28;7386684;19;1549;-38
2023/11/07 10:53:37;;;;;;;;;;;;;;;21.81;48.81;101196.25;7387997;19;1539;-38
2023/11/07 10:56:11;;;;;;;;;;;;;;;21.64;49.70;101191.56;7392308;19;1486;-38
2023/11/07 10:58:43;;;;;;;;;;;;;;;21.73;49.37;101204.19;7394928;19;1495;-38
2023/11/07 11:01:12;;;;;;;;;;;;;;;21.73;49.49;101200.66;7386755;19;1515;-38
2023/11/07 11:03:46;;;;;;;;;;;;;;;21.72;49.25;101178.25;7391909;19;1655;-38
2023/11/07 11:06:15;;;;;;;;;;;;;;;21.68;49.49;101187.59;7394476;19;1575;-38
2023/11/07 11:08:46;;;;;;;;;;;;;;;21.73;49.65;101179.13;7396557;19;1559;-38
2023/11/07 11:11:15;;;;;;;;;;;;;;;21.59;49.36;101177.72;7396126;19;1554;-38
2023/11/07 11:13:44;;;;;;;;;;;;;;;21.71;48.81;101181.94;7397203;19;1496;-39
2023/11/07 11:16:13;;;;;;;;;;;;;;;21.64;49.01;101181.66;7392508;19;1491;-40
2023/11/07 11:18:49;;;;;;;;;;;;;;;21.76;49.39;101186.88;7393289;19;1456;-37
2023/11/07 11:21:24;;;;;;;;;;;;;;;21.61;49.11;101194.56;7396895;19;1557;-37
2023/11/07 11:23:58;;;;;;;;;;;;;;;21.53;49.44;101191.75;7394888;19;1890;-37
2023/11/07 11:26:28;;;;;;;;;;;;;;;21.49;49.44;101184.91;7393146;19;1514;-37
2023/11/07 11:28:57;;;;;;;;;;;;;;;21.47;49.36;101186.91;7396336;19;1516;-37
2023/11/07 11:31:28;;;;;;;;;;;;;;;21.51;49.31;101182.97;7396414;19;1830;-37
2023/11/07 11:34:12;;;;;;;;;;;;;;;21.57;49.41;101182.38;7392309;19;1593;-61
2023/11/07 11:36:46;;;;;;;;;;;;;;;21.59;49.15;101186.63;7393941;19;1620;-50
2023/11/07 11:39:29;;;;;;;;;;;;;;;21.57;49.75;101187.78;7393866;19;1518;-39
2023/11/07 11:41:58;;;;;;;;;;;;;;;21.52;49.39;101193.56;7394003;19;1499;-39
2023/11/07 11:44:26;;;;;;;;;;;;;;;21.61;49.71;101181.94;7391132;19;1843;-39
2023/11/07 11:46:55;;;;;;;;;;;;;;;21.75;49.30;101186.03;7393641;19;1484;-39
2023/11/07 11:49:24;;;;;;;;;;;;;;;21.81;49.18;101173.88;7381233;19;1124;-39
2023/11/07 11:51:57;;;;;;;;;;;;;;;21.82;49.23;101181.78;7394725;19;1835;-39
2023/11/07 11:54:40;;;;;;;;;;;;;;;21.78;49.17;101156.13;7394632;19;1479;-38
2023/11/07 11:57:10;;;;;;;;;;;;;;;21.82;49.34;101160.22;7394989;19;1558;-39
2023/11/07 11:59:53;;;;;;;;;;;;;;;21.77;49.22;101172.44;7395582;19;1547;-39
2023/11/07 12:02:36;;;;;;;;;;;;;;;21.72;49.65;101166.63;7393433;19;1815;-39
2023/11/07 12:05:22;;;;;;;;;;;;;;;21.65;50.09;101171.75;7394522;19;1853;-39
2023/11/07 12:07:52;;;;;;;;;;;;;;;21.57;49.85;101174.31;7394352;19;1499;-39
2023/11/07 12:10:24;;;;;;;;;;;;;;;21.56;49.67;101175.28;7394319;19;1820;-39
2023/11/07 12:13:00;;;;;;;;;;;;;;;21.51;50.18;101174.88;7393580;19;1548;-38
2023/11/07 12:15:29;;;;;;;;;;;;;;;21.46;50.40;101161.84;7394082;19;1609;-39
2023/11/07 12:17:58;;;;;;;;;;;;;;;21.46;50.16;101169.91;7393101;19;1489;-39
2023/11/07 12:20:27;;;;;;;;;;;;;;;21.37;50.54;101150.06;7394619;19;1534;-39
2023/11/07 12:22:58;;;;;;;;;;;;;;;21.59;50.31;101164.25;7393274;19;1597;-38
2023/11/07 12:25:26;;;;;;;;;;;;;;;21.60;50.51;101152.47;7392448;19;1894;-39
2023/11/07 12:28:03;;;;;;;;;;;;;;;21.66;49.76;101143.84;7392684;19;1530;-39
2023/11/07 12:30:32;;;;;;;;;;;;;;;21.71;49.71;101146.94;7394523;19;1557;-39
2023/11/07 12:33:04;;;;;;;;;;;;;;;21.72;50.02;101145.94;7394227;19;1553;-39
2023/11/07 12:35:32;;;;;;;;;;;;;;;21.67;48.78;101137.47;7394286;19;1550;-39
2023/11/07 12:38:06;;;;;;;;;;;;;;;21.64;49.36;101143.13;7392395;19;1504;-38
2023/11/07 12:40:36;;;;;;;;;;;;;;;21.66;48.83;101135.75;7392350;19;1507;-38
2023/11/07 12:43:07;;;;;;;;;;;;;;;21.59;48.84;101148.13;7393380;19;1468;-38
2023/11/07 12:45:37;;;;;;;;;;;;;;;21.57;49.27;101144.72;7391675;19;1849;-38
2023/11/07 12:48:06;;;;;;;;;;;;;;;21.51;49.68;101134.53;7387755;19;1590;-38
2023/11/07 12:50:35;;;;;;;;;;;;;;;21.60;49.72;101147.09;7374891;19;1581;-38
2023/11/07 12:53:07;;;;;;;;;;;;;;;21.48;50.73;101162.53;7390085;19;1642;-38
2023/11/07 12:55:37;;;;;;;;;;;;;;;21.19;51.23;101119.50;7388267;19;1455;-38
2023/11/07 12:58:06;;;;;;;;;;;;;;;21.43;51.13;101136.06;7391642;19;1492;-38
2023/11/07 13:00:49;;;;;;;;;;;;;;;21.48;50.55;101142.88;7390773;19;1564;-38